sensor_id;sensor_type;location;lat;lon;timestamp;temperature;humidity
21033;DHT22;10675;47.976;7.824;2023-07-08T00:01:55;21.60;66.10
21033;DHT22;10675;47.976;7.824;2023-07-08T00:04:20;21.60;66.20
21033;DHT22;10675;47.976;7.824;2023-07-08T00:06:47;21.50;66.20
21033;DHT22;10675;47.976;7.824;2023-07-08T00:09:12;21.30;67.30
21033;DHT22;10675;47.976;7.824;2023-07-08T00:11:38;21.10;68.90
21033;DHT22;10675;47.976;7.824;2023-07-08T00:14:03;21.00;69.40
21033;DHT22;10675;47.976;7.824;2023-07-08T00:16:29;21.10;69.80
21033;DHT22;10675;47.976;7.824;2023-07-08T00:18:54;21.10;68.10
21033;DHT22;10675;47.976;7.824;2023-07-08T00:21:20;21.10;67.50
21033;DHT22;10675;47.976;7.824;2023-07-08T00:23:47;21.10;66.80
21033;DHT22;10675;47.976;7.824;2023-07-08T00:26:24;21.10;67.40
21033;DHT22;10675;47.976;7.824;2023-07-08T00:28:50;21.10;67.60
21033;DHT22;10675;47.976;7.824;2023-07-08T00:31:16;21.10;67.60
21033;DHT22;10675;47.976;7.824;2023-07-08T00:33:42;21.10;68.60
21033;DHT22;10675;47.976;7.824;2023-07-08T00:36:15;20.90;69.20
21033;DHT22;10675;47.976;7.824;2023-07-08T00:38:41;20.90;68.60
21033;DHT22;10675;47.976;7.824;2023-07-08T00:41:33;20.90;68.50
21033;DHT22;10675;47.976;7.824;2023-07-08T00:44:00;20.90;68.90
21033;DHT22;10675;47.976;7.824;2023-07-08T00:51:34;20.70;69.30
21033;DHT22;10675;47.976;7.824;2023-07-08T00:54:00;20.70;70.20
21033;DHT22;10675;47.976;7.824;2023-07-08T00:56:34;20.70;70.40
21033;DHT22;10675;47.976;7.824;2023-07-08T00:59:01;20.70;69.90
21033;DHT22;10675;47.976;7.824;2023-07-08T01:01:29;20.70;69.20
21033;DHT22;10675;47.976;7.824;2023-07-08T01:04:02;20.70;68.70
21033;DHT22;10675;47.976;7.824;2023-07-08T01:06:33;20.70;69.90
21033;DHT22;10675;47.976;7.824;2023-07-08T01:09:02;20.70;71.10
21033;DHT22;10675;47.976;7.824;2023-07-08T01:11:29;20.60;71.30
21033;DHT22;10675;47.976;7.824;2023-07-08T01:13:55;20.70;70.00
21033;DHT22;10675;47.976;7.824;2023-07-08T01:16:22;20.60;71.20
21033;DHT22;10675;47.976;7.824;2023-07-08T01:18:48;20.60;70.20
21033;DHT22;10675;47.976;7.824;2023-07-08T01:21:39;20.50;71.90
21033;DHT22;10675;47.976;7.824;2023-07-08T01:24:07;20.50;72.20
21033;DHT22;10675;47.976;7.824;2023-07-08T01:26:37;20.50;72.00
21033;DHT22;10675;47.976;7.824;2023-07-08T01:29:04;20.50;72.40
21033;DHT22;10675;47.976;7.824;2023-07-08T01:31:30;20.50;74.00
21033;DHT22;10675;47.976;7.824;2023-07-08T01:33:55;20.40;73.70
21033;DHT22;10675;47.976;7.824;2023-07-08T01:36:21;20.30;75.60
21033;DHT22;10675;47.976;7.824;2023-07-08T01:38:47;20.30;75.80
21033;DHT22;10675;47.976;7.824;2023-07-08T01:41:15;20.30;75.30
21033;DHT22;10675;47.976;7.824;2023-07-08T01:43:41;20.30;78.20
21033;DHT22;10675;47.976;7.824;2023-07-08T01:46:13;20.30;77.40
21033;DHT22;10675;47.976;7.824;2023-07-08T01:48:45;20.30;78.00
21033;DHT22;10675;47.976;7.824;2023-07-08T01:51:11;20.10;77.70
21033;DHT22;10675;47.976;7.824;2023-07-08T01:53:40;20.00;77.70
21033;DHT22;10675;47.976;7.824;2023-07-08T01:56:06;20.00;77.00
21033;DHT22;10675;47.976;7.824;2023-07-08T01:58:33;20.10;77.70
21033;DHT22;10675;47.976;7.824;2023-07-08T02:00:59;20.10;78.10
21033;DHT22;10675;47.976;7.824;2023-07-08T02:03:25;20.20;76.70
21033;DHT22;10675;47.976;7.824;2023-07-08T02:05:51;20.20;76.10
21033;DHT22;10675;47.976;7.824;2023-07-08T02:08:17;20.20;75.50
21033;DHT22;10675;47.976;7.824;2023-07-08T02:10:43;20.20;75.70
21033;DHT22;10675;47.976;7.824;2023-07-08T02:13:09;20.20;75.50
21033;DHT22;10675;47.976;7.824;2023-07-08T02:15:35;20.20;75.10
21033;DHT22;10675;47.976;7.824;2023-07-08T02:18:01;20.30;75.20
21033;DHT22;10675;47.976;7.824;2023-07-08T02:20:26;20.20;75.90
21033;DHT22;10675;47.976;7.824;2023-07-08T02:22:52;20.10;75.90
21033;DHT22;10675;47.976;7.824;2023-07-08T02:25:17;20.10;77.10
21033;DHT22;10675;47.976;7.824;2023-07-08T02:27:43;20.20;76.50
21033;DHT22;10675;47.976;7.824;2023-07-08T02:30:09;20.20;76.80
21033;DHT22;10675;47.976;7.824;2023-07-08T02:32:35;20.30;75.30
21033;DHT22;10675;47.976;7.824;2023-07-08T02:35:07;20.30;74.40
21033;DHT22;10675;47.976;7.824;2023-07-08T02:37:33;20.40;74.20
21033;DHT22;10675;47.976;7.824;2023-07-08T02:39:58;20.50;73.50
21033;DHT22;10675;47.976;7.824;2023-07-08T02:42:24;20.60;71.20
21033;DHT22;10675;47.976;7.824;2023-07-08T02:44:50;20.80;70.90
21033;DHT22;10675;47.976;7.824;2023-07-08T02:47:15;20.90;70.60
21033;DHT22;10675;47.976;7.824;2023-07-08T02:49:41;21.00;71.10
21033;DHT22;10675;47.976;7.824;2023-07-08T02:52:06;20.90;71.60
21033;DHT22;10675;47.976;7.824;2023-07-08T02:54:32;21.00;72.40
21033;DHT22;10675;47.976;7.824;2023-07-08T02:56:58;21.10;72.40
21033;DHT22;10675;47.976;7.824;2023-07-08T02:59:23;21.20;72.70
21033;DHT22;10675;47.976;7.824;2023-07-08T03:01:49;21.20;73.30
21033;DHT22;10675;47.976;7.824;2023-07-08T03:04:15;21.20;73.30
21033;DHT22;10675;47.976;7.824;2023-07-08T03:06:42;21.20;73.50
21033;DHT22;10675;47.976;7.824;2023-07-08T03:09:08;21.20;73.80
21033;DHT22;10675;47.976;7.824;2023-07-08T03:11:34;21.20;74.40
21033;DHT22;10675;47.976;7.824;2023-07-08T03:14:00;21.10;75.00
21033;DHT22;10675;47.976;7.824;2023-07-08T03:16:25;21.10;75.80
21033;DHT22;10675;47.976;7.824;2023-07-08T03:18:51;21.00;76.50
21033;DHT22;10675;47.976;7.824;2023-07-08T03:21:17;20.90;76.70
21033;DHT22;10675;47.976;7.824;2023-07-08T03:23:43;20.90;77.90
21033;DHT22;10675;47.976;7.824;2023-07-08T03:26:14;20.80;78.40
21033;DHT22;10675;47.976;7.824;2023-07-08T03:28:40;20.80;78.90
21033;DHT22;10675;47.976;7.824;2023-07-08T03:31:09;20.80;79.40
21033;DHT22;10675;47.976;7.824;2023-07-08T03:33:35;20.80;78.30
21033;DHT22;10675;47.976;7.824;2023-07-08T03:36:01;20.90;78.00
21033;DHT22;10675;47.976;7.824;2023-07-08T03:38:27;21.30;77.60
21033;DHT22;10675;47.976;7.824;2023-07-08T03:40:53;21.80;76.30
21033;DHT22;10675;47.976;7.824;2023-07-08T03:43:18;22.30;76.10
21033;DHT22;10675;47.976;7.824;2023-07-08T03:45:44;22.50;75.70
21033;DHT22;10675;47.976;7.824;2023-07-08T03:48:11;22.50;76.00
21033;DHT22;10675;47.976;7.824;2023-07-08T03:50:36;22.40;78.10
21033;DHT22;10675;47.976;7.824;2023-07-08T03:53:02;22.30;79.40
21033;DHT22;10675;47.976;7.824;2023-07-08T03:55:28;22.20;81.20
21033;DHT22;10675;47.976;7.824;2023-07-08T03:57:54;22.00;82.90
21033;DHT22;10675;47.976;7.824;2023-07-08T04:00:19;21.90;84.50
21033;DHT22;10675;47.976;7.824;2023-07-08T04:02:45;21.90;85.20
21033;DHT22;10675;47.976;7.824;2023-07-08T04:05:19;21.80;85.90
21033;DHT22;10675;47.976;7.824;2023-07-08T04:07:45;21.80;86.40
21033;DHT22;10675;47.976;7.824;2023-07-08T04:10:12;21.80;87.10
21033;DHT22;10675;47.976;7.824;2023-07-08T04:12:38;21.70;88.00
21033;DHT22;10675;47.976;7.824;2023-07-08T04:15:06;21.60;88.90
21033;DHT22;10675;47.976;7.824;2023-07-08T04:17:32;21.50;90.00
21033;DHT22;10675;47.976;7.824;2023-07-08T04:19:58;21.30;91.70
21033;DHT22;10675;47.976;7.824;2023-07-08T04:22:31;21.00;94.60
21033;DHT22;10675;47.976;7.824;2023-07-08T04:24:57;20.70;99.90
21033;DHT22;10675;47.976;7.824;2023-07-08T04:27:22;20.30;99.90
21033;DHT22;10675;47.976;7.824;2023-07-08T04:29:48;20.00;99.90
21033;DHT22;10675;47.976;7.824;2023-07-08T04:32:14;19.90;99.90
21033;DHT22;10675;47.976;7.824;2023-07-08T04:34:39;19.80;99.90
21033;DHT22;10675;47.976;7.824;2023-07-08T04:37:05;19.80;99.90
21033;DHT22;10675;47.976;7.824;2023-07-08T04:39:31;19.90;99.90
21033;DHT22;10675;47.976;7.824;2023-07-08T04:41:57;19.90;99.90
21033;DHT22;10675;47.976;7.824;2023-07-08T04:44:22;19.90;99.90
21033;DHT22;10675;47.976;7.824;2023-07-08T04:46:52;19.90;99.90
21033;DHT22;10675;47.976;7.824;2023-07-08T04:49:20;19.70;99.90
21033;DHT22;10675;47.976;7.824;2023-07-08T04:51:45;19.70;99.90
21033;DHT22;10675;47.976;7.824;2023-07-08T04:54:11;19.70;99.90
21033;DHT22;10675;47.976;7.824;2023-07-08T04:56:42;19.60;99.90
21033;DHT22;10675;47.976;7.824;2023-07-08T04:59:09;19.50;99.90
21033;DHT22;10675;47.976;7.824;2023-07-08T05:01:35;19.40;99.90
21033;DHT22;10675;47.976;7.824;2023-07-08T05:04:02;19.40;99.90
21033;DHT22;10675;47.976;7.824;2023-07-08T05:06:30;19.40;99.90
21033;DHT22;10675;47.976;7.824;2023-07-08T05:08:55;19.40;99.90
21033;DHT22;10675;47.976;7.824;2023-07-08T05:11:21;19.30;99.90
21033;DHT22;10675;47.976;7.824;2023-07-08T05:13:47;19.20;99.90
21033;DHT22;10675;47.976;7.824;2023-07-08T05:16:12;19.20;99.90
21033;DHT22;10675;47.976;7.824;2023-07-08T05:18:38;19.10;99.90
21033;DHT22;10675;47.976;7.824;2023-07-08T05:21:03;19.10;99.90
21033;DHT22;10675;47.976;7.824;2023-07-08T05:23:29;19.00;99.90
21033;DHT22;10675;47.976;7.824;2023-07-08T05:25:54;19.10;99.90
21033;DHT22;10675;47.976;7.824;2023-07-08T05:28:20;19.10;99.90
21033;DHT22;10675;47.976;7.824;2023-07-08T05:30:53;19.00;99.90
21033;DHT22;10675;47.976;7.824;2023-07-08T05:33:19;18.90;99.90
21033;DHT22;10675;47.976;7.824;2023-07-08T05:35:45;18.80;99.90
21033;DHT22;10675;47.976;7.824;2023-07-08T05:38:11;18.70;99.90
21033;DHT22;10675;47.976;7.824;2023-07-08T05:40:36;18.80;99.90
21033;DHT22;10675;47.976;7.824;2023-07-08T05:43:02;18.90;99.90
21033;DHT22;10675;47.976;7.824;2023-07-08T05:45:27;18.90;99.90
21033;DHT22;10675;47.976;7.824;2023-07-08T05:47:53;18.80;99.90
21033;DHT22;10675;47.976;7.824;2023-07-08T05:50:18;18.70;99.90
21033;DHT22;10675;47.976;7.824;2023-07-08T05:52:44;18.80;99.90
21033;DHT22;10675;47.976;7.824;2023-07-08T05:55:09;18.80;99.90
21033;DHT22;10675;47.976;7.824;2023-07-08T05:57:35;18.70;99.90
21033;DHT22;10675;47.976;7.824;2023-07-08T06:00:00;18.70;99.90
21033;DHT22;10675;47.976;7.824;2023-07-08T06:02:26;18.80;99.90
21033;DHT22;10675;47.976;7.824;2023-07-08T06:04:52;19.00;99.90
21033;DHT22;10675;47.976;7.824;2023-07-08T06:07:17;19.10;99.90
21033;DHT22;10675;47.976;7.824;2023-07-08T06:09:43;19.00;99.90
21033;DHT22;10675;47.976;7.824;2023-07-08T06:12:09;18.80;99.90
21033;DHT22;10675;47.976;7.824;2023-07-08T06:14:34;18.90;99.90
21033;DHT22;10675;47.976;7.824;2023-07-08T06:17:00;19.20;99.90
21033;DHT22;10675;47.976;7.824;2023-07-08T06:19:25;19.30;99.90
21033;DHT22;10675;47.976;7.824;2023-07-08T06:21:51;19.30;99.90
21033;DHT22;10675;47.976;7.824;2023-07-08T06:24:16;19.50;99.90
21033;DHT22;10675;47.976;7.824;2023-07-08T06:26:42;19.60;99.90
21033;DHT22;10675;47.976;7.824;2023-07-08T06:29:07;19.90;99.90
21033;DHT22;10675;47.976;7.824;2023-07-08T06:31:33;20.40;99.90
21033;DHT22;10675;47.976;7.824;2023-07-08T06:34:00;20.50;99.90
21033;DHT22;10675;47.976;7.824;2023-07-08T06:36:25;20.30;99.90
21033;DHT22;10675;47.976;7.824;2023-07-08T06:38:51;20.70;99.90
21033;DHT22;10675;47.976;7.824;2023-07-08T06:41:16;20.50;99.90
21033;DHT22;10675;47.976;7.824;2023-07-08T06:43:42;20.60;99.90
21033;DHT22;10675;47.976;7.824;2023-07-08T06:46:07;20.40;99.90
21033;DHT22;10675;47.976;7.824;2023-07-08T06:48:33;20.60;99.90
21033;DHT22;10675;47.976;7.824;2023-07-08T06:50:59;20.50;99.90
21033;DHT22;10675;47.976;7.824;2023-07-08T06:53:24;21.00;99.90
21033;DHT22;10675;47.976;7.824;2023-07-08T06:55:50;21.30;99.90
21033;DHT22;10675;47.976;7.824;2023-07-08T06:58:16;21.30;99.90
21033;DHT22;10675;47.976;7.824;2023-07-08T07:00:43;21.20;99.90
21033;DHT22;10675;47.976;7.824;2023-07-08T07:03:09;20.80;99.90
21033;DHT22;10675;47.976;7.824;2023-07-08T07:05:34;20.80;99.90
21033;DHT22;10675;47.976;7.824;2023-07-08T07:08:00;21.50;99.90
21033;DHT22;10675;47.976;7.824;2023-07-08T07:10:25;21.80;99.90
21033;DHT22;10675;47.976;7.824;2023-07-08T07:12:51;21.50;99.90
21033;DHT22;10675;47.976;7.824;2023-07-08T07:15:16;21.30;99.90
21033;DHT22;10675;47.976;7.824;2023-07-08T07:17:42;21.00;99.90
21033;DHT22;10675;47.976;7.824;2023-07-08T07:20:08;21.20;99.90
21033;DHT22;10675;47.976;7.824;2023-07-08T07:22:34;21.60;99.90
21033;DHT22;10675;47.976;7.824;2023-07-08T07:25:00;21.60;99.90
21033;DHT22;10675;47.976;7.824;2023-07-08T07:27:25;21.90;99.90
21033;DHT22;10675;47.976;7.824;2023-07-08T07:29:51;22.20;99.90
21033;DHT22;10675;47.976;7.824;2023-07-08T07:32:18;22.30;99.90
21033;DHT22;10675;47.976;7.824;2023-07-08T07:34:48;22.40;99.90
21033;DHT22;10675;47.976;7.824;2023-07-08T07:37:16;22.70;99.90
21033;DHT22;10675;47.976;7.824;2023-07-08T07:39:42;22.60;99.90
21033;DHT22;10675;47.976;7.824;2023-07-08T07:42:08;22.60;99.90
21033;DHT22;10675;47.976;7.824;2023-07-08T07:44:34;22.60;99.90
21033;DHT22;10675;47.976;7.824;2023-07-08T07:47:02;23.00;99.90
21033;DHT22;10675;47.976;7.824;2023-07-08T07:49:28;22.90;99.90
21033;DHT22;10675;47.976;7.824;2023-07-08T07:51:53;22.60;99.90
21033;DHT22;10675;47.976;7.824;2023-07-08T07:54:19;22.80;99.90
21033;DHT22;10675;47.976;7.824;2023-07-08T07:56:44;22.70;99.90
21033;DHT22;10675;47.976;7.824;2023-07-08T07:59:10;22.70;99.90
21033;DHT22;10675;47.976;7.824;2023-07-08T08:01:36;22.80;99.90
21033;DHT22;10675;47.976;7.824;2023-07-08T08:04:02;22.70;99.90
21033;DHT22;10675;47.976;7.824;2023-07-08T08:06:28;22.70;99.90
21033;DHT22;10675;47.976;7.824;2023-07-08T08:08:53;22.80;99.90
21033;DHT22;10675;47.976;7.824;2023-07-08T08:11:19;22.70;99.90
21033;DHT22;10675;47.976;7.824;2023-07-08T08:13:45;22.70;99.90
21033;DHT22;10675;47.976;7.824;2023-07-08T08:16:10;22.50;99.90
21033;DHT22;10675;47.976;7.824;2023-07-08T08:18:36;22.40;99.90
21033;DHT22;10675;47.976;7.824;2023-07-08T08:21:01;22.40;99.90
21033;DHT22;10675;47.976;7.824;2023-07-08T08:23:27;22.10;99.90
21033;DHT22;10675;47.976;7.824;2023-07-08T08:25:52;22.10;99.90
21033;DHT22;10675;47.976;7.824;2023-07-08T08:28:18;22.40;99.90
21033;DHT22;10675;47.976;7.824;2023-07-08T08:30:50;22.20;99.90
21033;DHT22;10675;47.976;7.824;2023-07-08T08:33:16;22.20;99.90
21033;DHT22;10675;47.976;7.824;2023-07-08T08:35:44;22.50;99.90
21033;DHT22;10675;47.976;7.824;2023-07-08T08:38:10;22.80;99.90
21033;DHT22;10675;47.976;7.824;2023-07-08T08:40:36;23.00;99.90
21033;DHT22;10675;47.976;7.824;2023-07-08T08:43:04;23.20;99.90
21033;DHT22;10675;47.976;7.824;2023-07-08T08:45:53;23.20;99.90
21033;DHT22;10675;47.976;7.824;2023-07-08T08:48:23;23.30;99.90
21033;DHT22;10675;47.976;7.824;2023-07-08T08:50:56;23.40;99.90
21033;DHT22;10675;47.976;7.824;2023-07-08T08:53:23;23.40;99.90
21033;DHT22;10675;47.976;7.824;2023-07-08T08:56:03;23.50;99.90
21033;DHT22;10675;47.976;7.824;2023-07-08T08:58:49;23.50;99.90
21033;DHT22;10675;47.976;7.824;2023-07-08T09:01:18;23.70;99.90
21033;DHT22;10675;47.976;7.824;2023-07-08T09:06:28;23.90;99.90
21033;DHT22;10675;47.976;7.824;2023-07-08T09:08:57;23.90;99.90
21033;DHT22;10675;47.976;7.824;2023-07-08T09:16:57;24.00;99.90
21033;DHT22;10675;47.976;7.824;2023-07-08T09:19:31;24.10;99.90
21033;DHT22;10675;47.976;7.824;2023-07-08T09:27:22;24.60;99.90
21033;DHT22;10675;47.976;7.824;2023-07-08T09:29:47;24.60;99.90
21033;DHT22;10675;47.976;7.824;2023-07-08T09:32:15;24.60;99.90
21033;DHT22;10675;47.976;7.824;2023-07-08T09:34:45;24.70;99.40
21033;DHT22;10675;47.976;7.824;2023-07-08T09:37:33;24.80;99.50
21033;DHT22;10675;47.976;7.824;2023-07-08T09:40:03;24.80;97.70
21033;DHT22;10675;47.976;7.824;2023-07-08T09:42:33;25.00;96.90
21033;DHT22;10675;47.976;7.824;2023-07-08T09:45:10;25.00;97.70
21033;DHT22;10675;47.976;7.824;2023-07-08T09:47:37;24.90;97.10
21033;DHT22;10675;47.976;7.824;2023-07-08T09:50:20;25.00;96.70
21033;DHT22;10675;47.976;7.824;2023-07-08T09:52:47;25.00;97.10
21033;DHT22;10675;47.976;7.824;2023-07-08T09:55:13;25.00;97.70
21033;DHT22;10675;47.976;7.824;2023-07-08T09:57:39;25.10;96.10
21033;DHT22;10675;47.976;7.824;2023-07-08T10:00:14;25.20;95.90
21033;DHT22;10675;47.976;7.824;2023-07-08T10:02:54;25.40;95.90
21033;DHT22;10675;47.976;7.824;2023-07-08T10:05:29;25.60;95.70
21033;DHT22;10675;47.976;7.824;2023-07-08T10:07:57;25.70;95.00
21033;DHT22;10675;47.976;7.824;2023-07-08T10:10:34;25.80;96.00
21033;DHT22;10675;47.976;7.824;2023-07-08T10:13:24;25.90;95.20
21033;DHT22;10675;47.976;7.824;2023-07-08T10:15:55;25.80;95.50
21033;DHT22;10675;47.976;7.824;2023-07-08T10:18:28;26.10;94.30
21033;DHT22;10675;47.976;7.824;2023-07-08T10:21:06;26.20;95.20
21033;DHT22;10675;47.976;7.824;2023-07-08T10:26:37;26.40;94.50
21033;DHT22;10675;47.976;7.824;2023-07-08T10:31:56;26.80;94.20
21033;DHT22;10675;47.976;7.824;2023-07-08T10:40:27;27.40;92.00
21033;DHT22;10675;47.976;7.824;2023-07-08T10:43:29;27.30;92.10
21033;DHT22;10675;47.976;7.824;2023-07-08T10:51:30;27.50;92.50
21033;DHT22;10675;47.976;7.824;2023-07-08T10:54:12;27.40;91.60
21033;DHT22;10675;47.976;7.824;2023-07-08T10:56:50;27.60;91.90
21033;DHT22;10675;47.976;7.824;2023-07-08T11:05:13;27.50;89.40
21033;DHT22;10675;47.976;7.824;2023-07-08T11:07:43;27.60;90.20
21033;DHT22;10675;47.976;7.824;2023-07-08T11:10:35;27.90;88.20
21033;DHT22;10675;47.976;7.824;2023-07-08T11:15:49;28.20;86.40
21033;DHT22;10675;47.976;7.824;2023-07-08T11:20:56;28.30;83.40
21033;DHT22;10675;47.976;7.824;2023-07-08T11:26:14;28.50;80.00
21033;DHT22;10675;47.976;7.824;2023-07-08T11:28:41;28.90;78.80
21033;DHT22;10675;47.976;7.824;2023-07-08T11:31:08;29.10;77.20
21033;DHT22;10675;47.976;7.824;2023-07-08T11:33:34;28.90;74.80
21033;DHT22;10675;47.976;7.824;2023-07-08T11:36:01;28.80;73.80
21033;DHT22;10675;47.976;7.824;2023-07-08T11:38:27;28.70;72.60
21033;DHT22;10675;47.976;7.824;2023-07-08T11:40:59;28.50;72.90
21033;DHT22;10675;47.976;7.824;2023-07-08T11:43:34;28.60;73.00
21033;DHT22;10675;47.976;7.824;2023-07-08T11:46:05;28.90;70.90
21033;DHT22;10675;47.976;7.824;2023-07-08T11:48:42;28.90;71.10
21033;DHT22;10675;47.976;7.824;2023-07-08T11:51:09;29.00;69.00
21033;DHT22;10675;47.976;7.824;2023-07-08T11:53:50;29.10;69.50
21033;DHT22;10675;47.976;7.824;2023-07-08T11:56:18;28.90;69.00
21033;DHT22;10675;47.976;7.824;2023-07-08T12:01:39;29.00;69.20
21033;DHT22;10675;47.976;7.824;2023-07-08T12:09:28;29.50;65.70
21033;DHT22;10675;47.976;7.824;2023-07-08T12:12:01;29.60;64.50
21033;DHT22;10675;47.976;7.824;2023-07-08T12:14:28;29.50;63.10
21033;DHT22;10675;47.976;7.824;2023-07-08T12:16:55;29.30;62.10
21033;DHT22;10675;47.976;7.824;2023-07-08T12:19:22;29.60;63.60
21033;DHT22;10675;47.976;7.824;2023-07-08T12:21:51;30.00;61.90
21033;DHT22;10675;47.976;7.824;2023-07-08T12:24:17;30.10;59.60
21033;DHT22;10675;47.976;7.824;2023-07-08T12:26:43;30.30;58.80
21033;DHT22;10675;47.976;7.824;2023-07-08T12:29:11;30.50;60.00
21033;DHT22;10675;47.976;7.824;2023-07-08T12:31:39;30.80;59.60
21033;DHT22;10675;47.976;7.824;2023-07-08T12:34:11;30.60;57.60
21033;DHT22;10675;47.976;7.824;2023-07-08T12:36:38;30.50;57.80
21033;DHT22;10675;47.976;7.824;2023-07-08T12:39:05;30.70;57.70
21033;DHT22;10675;47.976;7.824;2023-07-08T12:41:33;30.70;57.50
21033;DHT22;10675;47.976;7.824;2023-07-08T12:44:01;30.60;57.40
21033;DHT22;10675;47.976;7.824;2023-07-08T12:46:27;30.80;57.90
21033;DHT22;10675;47.976;7.824;2023-07-08T12:48:53;31.10;58.30
21033;DHT22;10675;47.976;7.824;2023-07-08T12:51:25;31.10;53.10
21033;DHT22;10675;47.976;7.824;2023-07-08T12:53:52;31.10;52.80
21033;DHT22;10675;47.976;7.824;2023-07-08T12:56:19;31.30;53.90
21033;DHT22;10675;47.976;7.824;2023-07-08T12:58:51;31.50;52.90
21033;DHT22;10675;47.976;7.824;2023-07-08T13:01:22;31.80;51.60
21033;DHT22;10675;47.976;7.824;2023-07-08T13:03:54;31.90;51.00
21033;DHT22;10675;47.976;7.824;2023-07-08T13:06:23;31.90;50.70
21033;DHT22;10675;47.976;7.824;2023-07-08T13:08:51;32.30;51.30
21033;DHT22;10675;47.976;7.824;2023-07-08T13:11:19;32.80;49.70
21033;DHT22;10675;47.976;7.824;2023-07-08T13:13:59;33.00;49.40
21033;DHT22;10675;47.976;7.824;2023-07-08T13:16:33;33.20;46.50
21033;DHT22;10675;47.976;7.824;2023-07-08T13:18:59;33.10;46.80
21033;DHT22;10675;47.976;7.824;2023-07-08T13:21:25;33.20;46.40
21033;DHT22;10675;47.976;7.824;2023-07-08T13:23:53;33.40;46.50
21033;DHT22;10675;47.976;7.824;2023-07-08T13:26:21;33.70;46.90
21033;DHT22;10675;47.976;7.824;2023-07-08T13:28:47;33.80;46.10
21033;DHT22;10675;47.976;7.824;2023-07-08T13:31:16;34.10;44.80
21033;DHT22;10675;47.976;7.824;2023-07-08T13:33:50;34.20;43.30
21033;DHT22;10675;47.976;7.824;2023-07-08T13:36:22;34.30;42.50
21033;DHT22;10675;47.976;7.824;2023-07-08T13:38:48;34.50;42.50
21033;DHT22;10675;47.976;7.824;2023-07-08T13:41:20;34.80;41.80
21033;DHT22;10675;47.976;7.824;2023-07-08T13:43:47;34.10;41.70
21033;DHT22;10675;47.976;7.824;2023-07-08T13:46:30;34.60;40.50
21033;DHT22;10675;47.976;7.824;2023-07-08T13:49:00;34.80;39.80
21033;DHT22;10675;47.976;7.824;2023-07-08T13:51:30;34.70;40.20
21033;DHT22;10675;47.976;7.824;2023-07-08T13:53:59;35.10;40.40
21033;DHT22;10675;47.976;7.824;2023-07-08T13:56:29;35.50;38.90
21033;DHT22;10675;47.976;7.824;2023-07-08T13:59:06;35.90;36.80
21033;DHT22;10675;47.976;7.824;2023-07-08T14:01:35;36.00;37.30
21033;DHT22;10675;47.976;7.824;2023-07-08T14:04:03;35.60;31.50
21033;DHT22;10675;47.976;7.824;2023-07-08T14:06:32;36.00;33.00
21033;DHT22;10675;47.976;7.824;2023-07-08T14:09:03;35.90;33.50
21033;DHT22;10675;47.976;7.824;2023-07-08T14:11:31;35.40;32.70
21033;DHT22;10675;47.976;7.824;2023-07-08T14:13:57;35.20;32.90
21033;DHT22;10675;47.976;7.824;2023-07-08T14:16:28;34.70;33.60
21033;DHT22;10675;47.976;7.824;2023-07-08T14:18:59;34.60;33.50
21033;DHT22;10675;47.976;7.824;2023-07-08T14:21:25;34.50;34.20
21033;DHT22;10675;47.976;7.824;2023-07-08T14:23:51;34.00;34.00
21033;DHT22;10675;47.976;7.824;2023-07-08T14:26:18;33.70;34.80
21033;DHT22;10675;47.976;7.824;2023-07-08T14:28:44;33.40;34.80
21033;DHT22;10675;47.976;7.824;2023-07-08T14:31:11;32.90;35.30
21033;DHT22;10675;47.976;7.824;2023-07-08T14:33:38;32.90;34.50
21033;DHT22;10675;47.976;7.824;2023-07-08T14:36:09;32.80;34.80
21033;DHT22;10675;47.976;7.824;2023-07-08T14:38:34;32.70;35.20
21033;DHT22;10675;47.976;7.824;2023-07-08T14:41:00;32.50;35.90
21033;DHT22;10675;47.976;7.824;2023-07-08T14:43:30;32.40;37.00
21033;DHT22;10675;47.976;7.824;2023-07-08T14:45:59;32.30;35.80
21033;DHT22;10675;47.976;7.824;2023-07-08T14:48:28;32.10;36.00
21033;DHT22;10675;47.976;7.824;2023-07-08T14:50:54;31.90;36.70
21033;DHT22;10675;47.976;7.824;2023-07-08T14:53:19;32.00;38.40
21033;DHT22;10675;47.976;7.824;2023-07-08T14:55:48;32.20;39.20
21033;DHT22;10675;47.976;7.824;2023-07-08T14:58:26;32.20;37.60
21033;DHT22;10675;47.976;7.824;2023-07-08T15:00:55;32.30;38.10
21033;DHT22;10675;47.976;7.824;2023-07-08T15:03:22;32.20;37.30
21033;DHT22;10675;47.976;7.824;2023-07-08T15:05:48;32.20;37.60
21033;DHT22;10675;47.976;7.824;2023-07-08T15:08:13;32.10;36.90
21033;DHT22;10675;47.976;7.824;2023-07-08T15:10:46;32.30;37.90
21033;DHT22;10675;47.976;7.824;2023-07-08T15:13:13;32.30;36.30
21033;DHT22;10675;47.976;7.824;2023-07-08T15:15:38;32.30;37.60
21033;DHT22;10675;47.976;7.824;2023-07-08T15:18:13;32.30;36.80
21033;DHT22;10675;47.976;7.824;2023-07-08T15:20:39;32.50;37.50
21033;DHT22;10675;47.976;7.824;2023-07-08T15:23:04;32.80;36.30
21033;DHT22;10675;47.976;7.824;2023-07-08T15:25:30;32.80;35.70
21033;DHT22;10675;47.976;7.824;2023-07-08T15:27:57;32.70;36.00
21033;DHT22;10675;47.976;7.824;2023-07-08T15:30:25;32.40;35.70
21033;DHT22;10675;47.976;7.824;2023-07-08T15:32:52;32.20;36.70
21033;DHT22;10675;47.976;7.824;2023-07-08T15:35:23;32.10;35.90
21033;DHT22;10675;47.976;7.824;2023-07-08T15:37:56;31.90;36.70
21033;DHT22;10675;47.976;7.824;2023-07-08T15:40:23;31.70;36.70
21033;DHT22;10675;47.976;7.824;2023-07-08T15:42:51;31.60;37.30
21033;DHT22;10675;47.976;7.824;2023-07-08T15:45:38;31.60;38.10
21033;DHT22;10675;47.976;7.824;2023-07-08T15:48:12;31.60;38.50
21033;DHT22;10675;47.976;7.824;2023-07-08T15:50:37;31.40;38.60
21033;DHT22;10675;47.976;7.824;2023-07-08T15:53:03;31.30;39.40
21033;DHT22;10675;47.976;7.824;2023-07-08T15:55:31;31.20;40.20
21033;DHT22;10675;47.976;7.824;2023-07-08T15:58:04;31.10;40.90
21033;DHT22;10675;47.976;7.824;2023-07-08T16:00:32;31.10;41.50
21033;DHT22;10675;47.976;7.824;2023-07-08T16:03:00;31.10;41.50
21033;DHT22;10675;47.976;7.824;2023-07-08T16:05:27;31.30;41.10
21033;DHT22;10675;47.976;7.824;2023-07-08T16:07:54;31.20;41.10
21033;DHT22;10675;47.976;7.824;2023-07-08T16:10:21;31.20;41.00
21033;DHT22;10675;47.976;7.824;2023-07-08T16:12:48;31.10;39.00
21033;DHT22;10675;47.976;7.824;2023-07-08T16:15:16;31.20;40.40
21033;DHT22;10675;47.976;7.824;2023-07-08T16:17:42;31.30;41.70
21033;DHT22;10675;47.976;7.824;2023-07-08T16:20:22;31.30;41.60
21033;DHT22;10675;47.976;7.824;2023-07-08T16:22:48;31.20;42.00
21033;DHT22;10675;47.976;7.824;2023-07-08T16:27:44;31.30;41.80
21033;DHT22;10675;47.976;7.824;2023-07-08T16:30:16;31.10;41.10
21033;DHT22;10675;47.976;7.824;2023-07-08T16:32:43;31.10;41.90
21033;DHT22;10675;47.976;7.824;2023-07-08T16:35:11;31.10;41.40
21033;DHT22;10675;47.976;7.824;2023-07-08T16:37:37;31.00;43.00